sensor_id;sensor_type;location;lat;lon;timestamp;temperature;humidity
17956;DHT22;27666;51.498;11.966;2023-07-24T00:00:58;22.10;99.90
17956;DHT22;27666;51.498;11.966;2023-07-24T00:03:45;22.10;99.90
17956;DHT22;27666;51.498;11.966;2023-07-24T00:06:34;22.10;99.90
17956;DHT22;27666;51.498;11.966;2023-07-24T00:09:20;22.00;99.90
17956;DHT22;27666;51.498;11.966;2023-07-24T00:12:07;22.00;99.90
17956;DHT22;27666;51.498;11.966;2023-07-24T00:14:56;22.00;99.90
17956;DHT22;27666;51.498;11.966;2023-07-24T00:17:44;22.00;99.90
17956;DHT22;27666;51.498;11.966;2023-07-24T00:20:30;22.00;99.90
17956;DHT22;27666;51.498;11.966;2023-07-24T00:23:17;21.90;99.90
17956;DHT22;27666;51.498;11.966;2023-07-24T00:26:04;22.00;99.90
17956;DHT22;27666;51.498;11.966;2023-07-24T00:28:50;21.90;99.90
17956;DHT22;27666;51.498;11.966;2023-07-24T00:31:37;21.90;99.90
17956;DHT22;27666;51.498;11.966;2023-07-24T00:34:27;21.80;99.90
17956;DHT22;27666;51.498;11.966;2023-07-24T00:37:15;21.80;99.90
17956;DHT22;27666;51.498;11.966;2023-07-24T00:40:02;21.70;99.90
17956;DHT22;27666;51.498;11.966;2023-07-24T00:42:49;21.60;99.90
17956;DHT22;27666;51.498;11.966;2023-07-24T00:45:35;21.60;99.90
17956;DHT22;27666;51.498;11.966;2023-07-24T00:48:22;21.70;99.90
17956;DHT22;27666;51.498;11.966;2023-07-24T00:51:10;21.60;99.90
17956;DHT22;27666;51.498;11.966;2023-07-24T00:53:58;21.60;99.90
17956;DHT22;27666;51.498;11.966;2023-07-24T00:56:46;21.70;99.90
17956;DHT22;27666;51.498;11.966;2023-07-24T00:59:32;21.70;99.90
17956;DHT22;27666;51.498;11.966;2023-07-24T01:02:19;21.70;99.90
17956;DHT22;27666;51.498;11.966;2023-07-24T01:05:07;21.70;99.90
17956;DHT22;27666;51.498;11.966;2023-07-24T01:07:56;21.70;99.90
17956;DHT22;27666;51.498;11.966;2023-07-24T01:10:43;21.60;99.90
17956;DHT22;27666;51.498;11.966;2023-07-24T01:13:33;21.60;99.90
17956;DHT22;27666;51.498;11.966;2023-07-24T01:16:23;21.60;99.90
17956;DHT22;27666;51.498;11.966;2023-07-24T01:19:25;21.60;99.90
17956;DHT22;27666;51.498;11.966;2023-07-24T01:22:25;21.60;99.90
17956;DHT22;27666;51.498;11.966;2023-07-24T01:25:27;21.60;99.90
17956;DHT22;27666;51.498;11.966;2023-07-24T01:28:15;21.50;99.90
17956;DHT22;27666;51.498;11.966;2023-07-24T01:31:02;21.40;99.90
17956;DHT22;27666;51.498;11.966;2023-07-24T01:33:49;21.40;99.90
17956;DHT22;27666;51.498;11.966;2023-07-24T01:36:36;21.30;99.90
17956;DHT22;27666;51.498;11.966;2023-07-24T01:39:23;21.30;99.90
17956;DHT22;27666;51.498;11.966;2023-07-24T01:42:10;21.20;99.90
17956;DHT22;27666;51.498;11.966;2023-07-24T01:44:59;21.30;99.90
17956;DHT22;27666;51.498;11.966;2023-07-24T01:47:45;21.30;99.90
17956;DHT22;27666;51.498;11.966;2023-07-24T01:50:32;21.30;99.90
17956;DHT22;27666;51.498;11.966;2023-07-24T01:53:18;21.30;99.90
17956;DHT22;27666;51.498;11.966;2023-07-24T01:56:05;21.30;99.90
17956;DHT22;27666;51.498;11.966;2023-07-24T01:58:51;21.20;99.90
17956;DHT22;27666;51.498;11.966;2023-07-24T02:01:39;21.20;99.90
17956;DHT22;27666;51.498;11.966;2023-07-24T02:04:27;21.20;99.90
17956;DHT22;27666;51.498;11.966;2023-07-24T02:07:13;21.10;99.90
17956;DHT22;27666;51.498;11.966;2023-07-24T02:10:00;21.20;99.90
17956;DHT22;27666;51.498;11.966;2023-07-24T02:12:46;21.20;99.90
17956;DHT22;27666;51.498;11.966;2023-07-24T02:15:33;21.20;99.90
17956;DHT22;27666;51.498;11.966;2023-07-24T02:18:21;21.10;99.90
17956;DHT22;27666;51.498;11.966;2023-07-24T02:21:07;21.10;99.90
17956;DHT22;27666;51.498;11.966;2023-07-24T02:23:54;21.00;99.90
17956;DHT22;27666;51.498;11.966;2023-07-24T02:26:40;21.00;99.90
17956;DHT22;27666;51.498;11.966;2023-07-24T02:29:27;21.10;99.90
17956;DHT22;27666;51.498;11.966;2023-07-24T02:32:13;21.00;99.90
17956;DHT22;27666;51.498;11.966;2023-07-24T02:35:01;21.00;99.90
17956;DHT22;27666;51.498;11.966;2023-07-24T02:37:48;21.00;99.90
17956;DHT22;27666;51.498;11.966;2023-07-24T02:40:35;21.00;99.90
17956;DHT22;27666;51.498;11.966;2023-07-24T02:43:22;21.00;99.90
17956;DHT22;27666;51.498;11.966;2023-07-24T02:46:08;21.00;99.90
17956;DHT22;27666;51.498;11.966;2023-07-24T02:48:55;20.90;99.90
17956;DHT22;27666;51.498;11.966;2023-07-24T02:51:42;21.00;99.90
17956;DHT22;27666;51.498;11.966;2023-07-24T02:54:29;20.90;99.90
17956;DHT22;27666;51.498;11.966;2023-07-24T02:57:15;20.80;99.90
17956;DHT22;27666;51.498;11.966;2023-07-24T03:00:02;20.80;99.90
17956;DHT22;27666;51.498;11.966;2023-07-24T03:02:50;20.70;99.90
17956;DHT22;27666;51.498;11.966;2023-07-24T03:05:36;20.60;99.90
17956;DHT22;27666;51.498;11.966;2023-07-24T03:08:25;20.50;99.90
17956;DHT22;27666;51.498;11.966;2023-07-24T03:11:11;20.50;99.90
17956;DHT22;27666;51.498;11.966;2023-07-24T03:13:58;20.50;99.90
17956;DHT22;27666;51.498;11.966;2023-07-24T03:16:47;20.50;99.90
17956;DHT22;27666;51.498;11.966;2023-07-24T03:19:33;20.40;99.90
17956;DHT22;27666;51.498;11.966;2023-07-24T03:22:20;20.50;99.90
17956;DHT22;27666;51.498;11.966;2023-07-24T03:25:08;20.50;99.90
17956;DHT22;27666;51.498;11.966;2023-07-24T03:27:55;20.50;99.90
17956;DHT22;27666;51.498;11.966;2023-07-24T03:30:41;20.50;99.90
17956;DHT22;27666;51.498;11.966;2023-07-24T03:33:28;20.50;99.90
17956;DHT22;27666;51.498;11.966;2023-07-24T03:36:16;20.50;99.90
17956;DHT22;27666;51.498;11.966;2023-07-24T03:39:03;20.50;99.90
17956;DHT22;27666;51.498;11.966;2023-07-24T03:41:51;20.50;99.90
17956;DHT22;27666;51.498;11.966;2023-07-24T03:44:38;20.50;99.90
17956;DHT22;27666;51.498;11.966;2023-07-24T03:47:41;20.60;99.90
17956;DHT22;27666;51.498;11.966;2023-07-24T03:51:05;20.60;99.90
17956;DHT22;27666;51.498;11.966;2023-07-24T03:54:08;20.60;99.90
17956;DHT22;27666;51.498;11.966;2023-07-24T03:56:58;20.60;99.90
17956;DHT22;27666;51.498;11.966;2023-07-24T03:59:45;20.70;99.90
17956;DHT22;27666;51.498;11.966;2023-07-24T04:02:33;20.70;99.90
17956;DHT22;27666;51.498;11.966;2023-07-24T04:05:23;20.80;99.90
17956;DHT22;27666;51.498;11.966;2023-07-24T04:08:11;20.80;99.90
17956;DHT22;27666;51.498;11.966;2023-07-24T04:11:01;20.90;99.90
17956;DHT22;27666;51.498;11.966;2023-07-24T04:13:56;21.00;99.90
17956;DHT22;27666;51.498;11.966;2023-07-24T04:16:46;21.10;99.90
17956;DHT22;27666;51.498;11.966;2023-07-24T04:19:34;21.20;99.90
17956;DHT22;27666;51.498;11.966;2023-07-24T04:22:21;21.40;99.90
17956;DHT22;27666;51.498;11.966;2023-07-24T04:25:11;21.50;99.90
17956;DHT22;27666;51.498;11.966;2023-07-24T04:28:04;21.60;99.90
17956;DHT22;27666;51.498;11.966;2023-07-24T04:30:53;21.70;99.90
17956;DHT22;27666;51.498;11.966;2023-07-24T04:33:44;21.70;99.90
17956;DHT22;27666;51.498;11.966;2023-07-24T04:36:32;21.80;99.90
17956;DHT22;27666;51.498;11.966;2023-07-24T04:39:27;21.70;99.90
17956;DHT22;27666;51.498;11.966;2023-07-24T04:42:14;21.70;99.90
17956;DHT22;27666;51.498;11.966;2023-07-24T04:45:05;21.80;99.90
17956;DHT22;27666;51.498;11.966;2023-07-24T04:47:55;21.90;99.90
17956;DHT22;27666;51.498;11.966;2023-07-24T04:50:45;22.00;99.90
17956;DHT22;27666;51.498;11.966;2023-07-24T04:53:35;22.10;99.90
17956;DHT22;27666;51.498;11.966;2023-07-24T05:02:08;22.70;99.90
17956;DHT22;27666;51.498;11.966;2023-07-24T05:07:49;23.50;99.90
17956;DHT22;27666;51.498;11.966;2023-07-24T05:10:37;23.90;99.90
17956;DHT22;27666;51.498;11.966;2023-07-24T05:13:25;24.20;99.90
17956;DHT22;27666;51.498;11.966;2023-07-24T05:16:13;24.60;99.90
17956;DHT22;27666;51.498;11.966;2023-07-24T05:19:08;24.90;99.90
17956;DHT22;27666;51.498;11.966;2023-07-24T05:21:58;25.20;99.90
17956;DHT22;27666;51.498;11.966;2023-07-24T05:24:58;25.60;99.90
17956;DHT22;27666;51.498;11.966;2023-07-24T05:27:45;26.00;99.90
17956;DHT22;27666;51.498;11.966;2023-07-24T05:30:39;26.40;99.90
17956;DHT22;27666;51.498;11.966;2023-07-24T05:33:33;26.70;99.90
17956;DHT22;27666;51.498;11.966;2023-07-24T05:39:25;27.70;99.90
17956;DHT22;27666;51.498;11.966;2023-07-24T05:42:14;27.90;99.90
17956;DHT22;27666;51.498;11.966;2023-07-24T05:47:57;28.70;98.60
17956;DHT22;27666;51.498;11.966;2023-07-24T05:53:36;29.70;99.30
17956;DHT22;27666;51.498;11.966;2023-07-24T05:59:14;31.30;92.20
17956;DHT22;27666;51.498;11.966;2023-07-24T06:02:01;31.60;92.00
17956;DHT22;27666;51.498;11.966;2023-07-24T06:19:00;34.10;75.20
17956;DHT22;27666;51.498;11.966;2023-07-24T06:21:47;34.70;74.30
17956;DHT22;27666;51.498;11.966;2023-07-24T06:24:35;35.50;73.00
17956;DHT22;27666;51.498;11.966;2023-07-24T06:27:25;36.20;69.60
17956;DHT22;27666;51.498;11.966;2023-07-24T06:30:14;36.40;68.30
17956;DHT22;27666;51.498;11.966;2023-07-24T06:33:03;36.80;67.20
17956;DHT22;27666;51.498;11.966;2023-07-24T06:35:55;37.10;65.90
17956;DHT22;27666;51.498;11.966;2023-07-24T06:38:44;37.20;64.30
17956;DHT22;27666;51.498;11.966;2023-07-24T06:41:34;36.40;64.60
17956;DHT22;27666;51.498;11.966;2023-07-24T06:44:26;36.00;63.90
17956;DHT22;27666;51.498;11.966;2023-07-24T06:47:19;35.50;65.20
17956;DHT22;27666;51.498;11.966;2023-07-24T06:50:08;35.80;64.70
17956;DHT22;27666;51.498;11.966;2023-07-24T06:55:44;35.30;97.40
17956;DHT22;27666;51.498;11.966;2023-07-24T06:58:32;34.30;64.20
17956;DHT22;27666;51.498;11.966;2023-07-24T07:01:19;32.80;66.80
17956;DHT22;27666;51.498;11.966;2023-07-24T07:04:08;31.50;68.90
17956;DHT22;27666;51.498;11.966;2023-07-24T07:06:57;30.60;71.50
17956;DHT22;27666;51.498;11.966;2023-07-24T07:09:47;29.90;73.30
17956;DHT22;27666;51.498;11.966;2023-07-24T07:12:38;29.50;74.50
17956;DHT22;27666;51.498;11.966;2023-07-24T07:15:25;29.10;76.00
17956;DHT22;27666;51.498;11.966;2023-07-24T07:18:14;29.50;75.60
17956;DHT22;27666;51.498;11.966;2023-07-24T07:21:06;29.60;74.90
17956;DHT22;27666;51.498;11.966;2023-07-24T07:23:57;29.50;75.30
17956;DHT22;27666;51.498;11.966;2023-07-24T07:26:46;29.50;75.30
17956;DHT22;27666;51.498;11.966;2023-07-24T07:29:36;29.50;75.20
17956;DHT22;27666;51.498;11.966;2023-07-24T07:32:32;29.40;75.00
17956;DHT22;27666;51.498;11.966;2023-07-24T07:35:25;29.10;75.20
17956;DHT22;27666;51.498;11.966;2023-07-24T07:38:15;29.10;75.30
17956;DHT22;27666;51.498;11.966;2023-07-24T07:41:04;29.00;75.40
17956;DHT22;27666;51.498;11.966;2023-07-24T07:43:53;28.70;76.60
17956;DHT22;27666;51.498;11.966;2023-07-24T07:46:41;28.70;76.40
17956;DHT22;27666;51.498;11.966;2023-07-24T07:49:40;28.50;76.50
17956;DHT22;27666;51.498;11.966;2023-07-24T07:52:34;28.50;77.00
17956;DHT22;27666;51.498;11.966;2023-07-24T07:55:27;28.70;76.50
17956;DHT22;27666;51.498;11.966;2023-07-24T07:58:29;28.70;77.20
17956;DHT22;27666;51.498;11.966;2023-07-24T08:01:20;28.80;76.90
17956;DHT22;27666;51.498;11.966;2023-07-24T08:04:13;28.80;77.00
17956;DHT22;27666;51.498;11.966;2023-07-24T08:07:01;29.00;77.10
17956;DHT22;27666;51.498;11.966;2023-07-24T08:09:51;29.50;76.80
17956;DHT22;27666;51.498;11.966;2023-07-24T08:12:45;30.20;75.20
17956;DHT22;27666;51.498;11.966;2023-07-24T08:15:34;30.70;72.90
17956;DHT22;27666;51.498;11.966;2023-07-24T08:18:29;30.70;73.10
17956;DHT22;27666;51.498;11.966;2023-07-24T08:21:17;30.90;72.50
17956;DHT22;27666;51.498;11.966;2023-07-24T08:24:13;30.80;72.90
17956;DHT22;27666;51.498;11.966;2023-07-24T08:27:04;30.70;73.20
17956;DHT22;27666;51.498;11.966;2023-07-24T08:29:55;30.80;73.10
17956;DHT22;27666;51.498;11.966;2023-07-24T08:32:43;30.90;72.20
17956;DHT22;27666;51.498;11.966;2023-07-24T08:35:33;30.70;72.30
17956;DHT22;27666;51.498;11.966;2023-07-24T08:38:21;30.80;71.20
17956;DHT22;27666;51.498;11.966;2023-07-24T08:41:14;30.70;71.70
17956;DHT22;27666;51.498;11.966;2023-07-24T08:44:04;30.60;72.20
17956;DHT22;27666;51.498;11.966;2023-07-24T08:46:55;30.50;71.80
17956;DHT22;27666;51.498;11.966;2023-07-24T08:49:44;30.50;71.80
17956;DHT22;27666;51.498;11.966;2023-07-24T08:52:35;30.50;71.80
17956;DHT22;27666;51.498;11.966;2023-07-24T08:55:23;30.40;71.80
17956;DHT22;27666;51.498;11.966;2023-07-24T08:58:11;30.30;72.30
17956;DHT22;27666;51.498;11.966;2023-07-24T09:00:59;30.30;72.40
17956;DHT22;27666;51.498;11.966;2023-07-24T09:03:52;30.40;71.80
17956;DHT22;27666;51.498;11.966;2023-07-24T09:06:40;30.40;72.40
17956;DHT22;27666;51.498;11.966;2023-07-24T09:09:31;30.70;72.20
17956;DHT22;27666;51.498;11.966;2023-07-24T09:15:11;32.10;69.20
17956;DHT22;27666;51.498;11.966;2023-07-24T09:18:01;32.90;68.30
17956;DHT22;27666;51.498;11.966;2023-07-24T09:20:52;33.30;67.30
17956;DHT22;27666;51.498;11.966;2023-07-24T09:23:42;33.80;65.80
17956;DHT22;27666;51.498;11.966;2023-07-24T09:29:19;34.50;63.10
17956;DHT22;27666;51.498;11.966;2023-07-24T09:32:08;34.60;63.30
17956;DHT22;27666;51.498;11.966;2023-07-24T09:35:20;34.60;62.90
17956;DHT22;27666;51.498;11.966;2023-07-24T09:38:14;34.80;62.20
17956;DHT22;27666;51.498;11.966;2023-07-24T09:41:05;34.70;61.60
17956;DHT22;27666;51.498;11.966;2023-07-24T09:44:00;34.80;61.10
17956;DHT22;27666;51.498;11.966;2023-07-24T09:46:49;34.80;60.90
17956;DHT22;27666;51.498;11.966;2023-07-24T09:49:41;34.10;61.60
17956;DHT22;27666;51.498;11.966;2023-07-24T09:52:30;33.60;62.70
17956;DHT22;27666;51.498;11.966;2023-07-24T09:55:25;33.30;63.30
17956;DHT22;27666;51.498;11.966;2023-07-24T09:58:24;33.20;62.90
17956;DHT22;27666;51.498;11.966;2023-07-24T10:01:13;33.00;63.70
17956;DHT22;27666;51.498;11.966;2023-07-24T10:04:04;33.10;64.10
17956;DHT22;27666;51.498;11.966;2023-07-24T10:06:52;33.40;63.60
17956;DHT22;27666;51.498;11.966;2023-07-24T10:09:41;33.60;62.90
17956;DHT22;27666;51.498;11.966;2023-07-24T10:12:31;33.50;63.20
17956;DHT22;27666;51.498;11.966;2023-07-24T10:15:21;33.60;62.40
17956;DHT22;27666;51.498;11.966;2023-07-24T10:18:09;33.50;62.30
17956;DHT22;27666;51.498;11.966;2023-07-24T10:21:01;33.00;63.40
17956;DHT22;27666;51.498;11.966;2023-07-24T10:23:50;33.10;63.80
17956;DHT22;27666;51.498;11.966;2023-07-24T10:26:38;33.00;63.40
17956;DHT22;27666;51.498;11.966;2023-07-24T10:29:34;32.90;63.20
17956;DHT22;27666;51.498;11.966;2023-07-24T10:32:22;32.50;64.00
17956;DHT22;27666;51.498;11.966;2023-07-24T10:35:11;32.40;64.50
17956;DHT22;27666;51.498;11.966;2023-07-24T10:38:02;32.40;65.00
17956;DHT22;27666;51.498;11.966;2023-07-24T10:41:01;32.20;64.30
17956;DHT22;27666;51.498;11.966;2023-07-24T10:43:58;32.00;65.00
17956;DHT22;27666;51.498;11.966;2023-07-24T10:46:50;31.90;65.20
17956;DHT22;27666;51.498;11.966;2023-07-24T10:49:48;31.90;65.60
17956;DHT22;27666;51.498;11.966;2023-07-24T10:52:37;31.70;65.50
17956;DHT22;27666;51.498;11.966;2023-07-24T10:55:27;31.60;65.10
17956;DHT22;27666;51.498;11.966;2023-07-24T10:58:19;31.60;65.70
17956;DHT22;27666;51.498;11.966;2023-07-24T11:01:09;31.60;65.60
17956;DHT22;27666;51.498;11.966;2023-07-24T11:04:02;31.80;65.50
17956;DHT22;27666;51.498;11.966;2023-07-24T11:06:52;31.70;65.60
17956;DHT22;27666;51.498;11.966;2023-07-24T11:09:44;31.80;65.70
17956;DHT22;27666;51.498;11.966;2023-07-24T11:12:32;31.80;65.80
17956;DHT22;27666;51.498;11.966;2023-07-24T11:15:24;31.80;65.60
17956;DHT22;27666;51.498;11.966;2023-07-24T11:18:14;31.70;65.20
17956;DHT22;27666;51.498;11.966;2023-07-24T11:21:07;31.70;64.60
17956;DHT22;27666;51.498;11.966;2023-07-24T11:23:58;31.50;64.80
17956;DHT22;27666;51.498;11.966;2023-07-24T11:26:47;31.50;64.10
17956;DHT22;27666;51.498;11.966;2023-07-24T11:29:39;31.30;64.60
17956;DHT22;27666;51.498;11.966;2023-07-24T11:32:27;31.20;65.30
17956;DHT22;27666;51.498;11.966;2023-07-24T11:35:14;31.40;65.60
17956;DHT22;27666;51.498;11.966;2023-07-24T11:38:03;31.40;64.20
17956;DHT22;27666;51.498;11.966;2023-07-24T11:40:53;31.40;64.20
17956;DHT22;27666;51.498;11.966;2023-07-24T11:43:52;31.40;64.50
17956;DHT22;27666;51.498;11.966;2023-07-24T11:46:42;31.40;64.00
17956;DHT22;27666;51.498;11.966;2023-07-24T11:49:30;31.40;64.90
17956;DHT22;27666;51.498;11.966;2023-07-24T11:52:22;31.50;64.20
17956;DHT22;27666;51.498;11.966;2023-07-24T11:55:14;31.60;64.30
17956;DHT22;27666;51.498;11.966;2023-07-24T11:58:06;31.70;64.40
17956;DHT22;27666;51.498;11.966;2023-07-24T12:00:55;31.50;63.00
17956;DHT22;27666;51.498;11.966;2023-07-24T12:03:43;31.40;63.80
17956;DHT22;27666;51.498;11.966;2023-07-24T12:06:37;31.40;63.20
17956;DHT22;27666;51.498;11.966;2023-07-24T12:09:29;31.30;63.50
17956;DHT22;27666;51.498;11.966;2023-07-24T12:12:18;31.20;64.40
17956;DHT22;27666;51.498;11.966;2023-07-24T12:15:09;31.10;65.00
17956;DHT22;27666;51.498;11.966;2023-07-24T12:18:01;31.00;65.60
17956;DHT22;27666;51.498;11.966;2023-07-24T12:20:52;30.80;65.70
17956;DHT22;27666;51.498;11.966;2023-07-24T12:23:42;30.60;65.10
17956;DHT22;27666;51.498;11.966;2023-07-24T12:26:30;30.30;65.80
17956;DHT22;27666;51.498;11.966;2023-07-24T12:29:24;30.00;66.50
17956;DHT22;27666;51.498;11.966;2023-07-24T12:32:12;29.70;67.00
17956;DHT22;27666;51.498;11.966;2023-07-24T12:34:59;29.60;67.60
17956;DHT22;27666;51.498;11.966;2023-07-24T12:37:49;29.40;67.90
17956;DHT22;27666;51.498;11.966;2023-07-24T12:40:38;29.20;68.80
17956;DHT22;27666;51.498;11.966;2023-07-24T12:43:25;29.10;69.00
17956;DHT22;27666;51.498;11.966;2023-07-24T12:46:24;29.00;68.90
17956;DHT22;27666;51.498;11.966;2023-07-24T12:49:14;28.80;70.00
17956;DHT22;27666;51.498;11.966;2023-07-24T12:52:01;28.70;70.00
17956;DHT22;27666;51.498;11.966;2023-07-24T12:54:48;28.60;70.10
17956;DHT22;27666;51.498;11.966;2023-07-24T12:57:45;28.50;70.20
17956;DHT22;27666;51.498;11.966;2023-07-24T13:00:34;28.50;70.40
17956;DHT22;27666;51.498;11.966;2023-07-24T13:03:33;28.70;70.80
17956;DHT22;27666;51.498;11.966;2023-07-24T13:06:23;29.00;70.50
17956;DHT22;27666;51.498;11.966;2023-07-24T13:09:11;29.40;70.50
17956;DHT22;27666;51.498;11.966;2023-07-24T13:11:59;29.60;69.80
17956;DHT22;27666;51.498;11.966;2023-07-24T13:14:59;29.80;69.00
17956;DHT22;27666;51.498;11.966;2023-07-24T13:17:48;30.00;69.70
17956;DHT22;27666;51.498;11.966;2023-07-24T13:20:39;30.20;68.60
17956;DHT22;27666;51.498;11.966;2023-07-24T13:23:31;30.10;68.80
17956;DHT22;27666;51.498;11.966;2023-07-24T13:26:23;30.00;68.60
17956;DHT22;27666;51.498;11.966;2023-07-24T13:29:12;30.00;68.80
17956;DHT22;27666;51.498;11.966;2023-07-24T13:32:01;29.90;69.30
17956;DHT22;27666;51.498;11.966;2023-07-24T13:34:54;29.80;69.20
17956;DHT22;27666;51.498;11.966;2023-07-24T13:37:46;29.70;69.80
17956;DHT22;27666;51.498;11.966;2023-07-24T13:40:34;29.60;69.70
17956;DHT22;27666;51.498;11.966;2023-07-24T13:43:23;29.50;69.70
17956;DHT22;27666;51.498;11.966;2023-07-24T13:46:14;29.60;70.40
17956;DHT22;27666;51.498;11.966;2023-07-24T13:49:02;30.00;70.20
17956;DHT22;27666;51.498;11.966;2023-07-24T13:51:50;30.20;69.70
17956;DHT22;27666;51.498;11.966;2023-07-24T13:54:56;30.50;68.20
17956;DHT22;27666;51.498;11.966;2023-07-24T13:57:44;30.60;71.70
17956;DHT22;27666;51.498;11.966;2023-07-24T14:00:31;30.70;70.30
17956;DHT22;27666;51.498;11.966;2023-07-24T14:03:20;30.60;69.20
17956;DHT22;27666;51.498;11.966;2023-07-24T14:06:10;30.80;80.90
17956;DHT22;27666;51.498;11.966;2023-07-24T14:09:01;30.40;82.70
17956;DHT22;27666;51.498;11.966;2023-07-24T14:11:56;30.30;83.00
17956;DHT22;27666;51.498;11.966;2023-07-24T14:14:44;30.20;83.40
17956;DHT22;27666;51.498;11.966;2023-07-24T14:17:31;30.20;82.60
17956;DHT22;27666;51.498;11.966;2023-07-24T14:20:20;30.30;82.20
17956;DHT22;27666;51.498;11.966;2023-07-24T14:23:08;30.20;82.60
17956;DHT22;27666;51.498;11.966;2023-07-24T14:25:56;30.20;83.40
17956;DHT22;27666;51.498;11.966;2023-07-24T14:28:48;30.30;82.90
17956;DHT22;27666;51.498;11.966;2023-07-24T14:31:39;30.30;79.40
17956;DHT22;27666;51.498;11.966;2023-07-24T14:34:28;30.40;80.30
17956;DHT22;27666;51.498;11.966;2023-07-24T14:37:15;30.40;79.60
17956;DHT22;27666;51.498;11.966;2023-07-24T14:40:03;30.50;79.80
17956;DHT22;27666;51.498;11.966;2023-07-24T14:42:51;30.60;78.70
17956;DHT22;27666;51.498;11.966;2023-07-24T14:45:41;30.60;78.30
17956;DHT22;27666;51.498;11.966;2023-07-24T14:48:36;30.50;79.10
17956;DHT22;27666;51.498;11.966;2023-07-24T14:51:24;30.40;80.00
17956;DHT22;27666;51.498;11.966;2023-07-24T14:54:12;30.20;79.90
17956;DHT22;27666;51.498;11.966;2023-07-24T14:57:04;30.00;79.50
17956;DHT22;27666;51.498;11.966;2023-07-24T15:00:11;29.80;79.90
17956;DHT22;27666;51.498;11.966;2023-07-24T15:03:01;29.70;79.70
17956;DHT22;27666;51.498;11.966;2023-07-24T15:05:50;29.60;79.30
17956;DHT22;27666;51.498;11.966;2023-07-24T15:08:39;29.50;80.20
17956;DHT22;27666;51.498;11.966;2023-07-24T15:11:30;29.40;81.30
17956;DHT22;27666;51.498;11.966;2023-07-24T15:14:20;29.30;81.70
17956;DHT22;27666;51.498;11.966;2023-07-24T15:17:11;29.20;83.00
17956;DHT22;27666;51.498;11.966;2023-07-24T15:20:08;29.20;83.60
17956;DHT22;27666;51.498;11.966;2023-07-24T15:22:58;29.30;83.00
17956;DHT22;27666;51.498;11.966;2023-07-24T15:25:49;29.50;82.40
17956;DHT22;27666;51.498;11.966;2023-07-24T15:28:41;29.50;82.10
17956;DHT22;27666;51.498;11.966;2023-07-24T15:31:34;29.30;82.30
17956;DHT22;27666;51.498;11.966;2023-07-24T15:34:26;29.20;82.80
17956;DHT22;27666;51.498;11.966;2023-07-24T15:37:16;29.20;83.60
17956;DHT22;27666;51.498;11.966;2023-07-24T15:40:07;29.20;82.70
17956;DHT22;27666;51.498;11.966;2023-07-24T15:42:56;29.20;82.70
17956;DHT22;27666;51.498;11.966;2023-07-24T15:45:45;29.20;83.80
17956;DHT22;27666;51.498;11.966;2023-07-24T15:48:33;29.20;83.00
17956;DHT22;27666;51.498;11.966;2023-07-24T15:51:24;29.20;82.40
17956;DHT22;27666;51.498;11.966;2023-07-24T15:54:16;29.20;81.50
17956;DHT22;27666;51.498;11.966;2023-07-24T15:57:04;29.10;82.70
17956;DHT22;27666;51.498;11.966;2023-07-24T15:59:52;28.70;73.10
17956;DHT22;27666;51.498;11.966;2023-07-24T16:02:42;28.60;73.10
17956;DHT22;27666;51.498;11.966;2023-07-24T16:05:36;28.40;73.30
17956;DHT22;27666;51.498;11.966;2023-07-24T16:08:24;28.30;73.50
17956;DHT22;27666;51.498;11.966;2023-07-24T16:11:15;28.10;73.90
17956;DHT22;27666;51.498;11.966;2023-07-24T16:14:05;27.90;73.60
17956;DHT22;27666;51.498;11.966;2023-07-24T16:16:53;27.80;73.30
17956;DHT22;27666;51.498;11.966;2023-07-24T16:19:43;27.60;73.40
17956;DHT22;27666;51.498;11.966;2023-07-24T16:22:35;27.50;73.70
17956;DHT22;27666;51.498;11.966;2023-07-24T16:25:28;27.40;73.50
17956;DHT22;27666;51.498;11.966;2023-07-24T16:28:15;27.30;73.50
17956;DHT22;27666;51.498;11.966;2023-07-24T16:31:02;27.20;73.30
17956;DHT22;27666;51.498;11.966;2023-07-24T16:33:48;27.20;73.30
17956;DHT22;27666;51.498;11.966;2023-07-24T16:36:35;27.20;73.50
17956;DHT22;27666;51.498;11.966;2023-07-24T16:39:21;27.10;73.60
17956;DHT22;27666;51.498;11.966;2023-07-24T16:42:11;27.10;73.80
17956;DHT22;27666;51.498;11.966;2023-07-24T16:44:57;27.10;74.00
17956;DHT22;27666;51.498;11.966;2023-07-24T16:47:44;27.00;74.00
17956;DHT22;27666;51.498;11.966;2023-07-24T16:50:32;27.00;74.20
17956;DHT22;27666;51.498;11.966;2023-07-24T16:53:20;27.00;74.10
17956;DHT22;27666;51.498;11.966;2023-07-24T16:56:06;26.90;74.70
17956;DHT22;27666;51.498;11.966;2023-07-24T16:58:54;26.40;78.00
17956;DHT22;27666;51.498;11.966;2023-07-24T17:04:28;24.80;88.20
17956;DHT22;27666;51.498;11.966;2023-07-24T17:07:14;23.90;85.00
17956;DHT22;27666;51.498;11.966;2023-07-24T17:10:01;24.20;87.20
17956;DHT22;27666;51.498;11.966;2023-07-24T17:12:50;24.00;91.00
17956;DHT22;27666;51.498;11.966;2023-07-24T17:18:25;23.40;98.60
17956;DHT22;27666;51.498;11.966;2023-07-24T17:21:12;23.10;99.90
17956;DHT22;27666;51.498;11.966;2023-07-24T17:23:59;23.00;99.90
17956;DHT22;27666;51.498;11.966;2023-07-24T17:26:46;22.70;99.90
17956;DHT22;27666;51.498;11.966;2023-07-24T17:29:32;22.60;99.90
17956;DHT22;27666;51.498;11.966;2023-07-24T17:32:21;22.20;99.90
17956;DHT22;27666;51.498;11.966;2023-07-24T17:35:10;22.10;99.90
17956;DHT22;27666;51.498;11.966;2023-07-24T17:37:58;22.10;99.90
17956;DHT22;27666;51.498;11.966;2023-07-24T17:40:45;22.00;99.90
17956;DHT22;27666;51.498;11.966;2023-07-24T17:43:32;21.90;99.90
17956;DHT22;27666;51.498;11.966;2023-07-24T17:46:18;21.90;99.90
17956;DHT22;27666;51.498;11.966;2023-07-24T17:49:06;21.90;99.90
17956;DHT22;27666;51.498;11.966;2023-07-24T17:51:53;21.80;99.90
17956;DHT22;27666;51.498;11.966;2023-07-24T17:54:41;21.90;99.90
17956;DHT22;27666;51.498;11.966;2023-07-24T17:57:29;21.90;99.90
17956;DHT22;27666;51.498;11.966;2023-07-24T18:00:16;22.00;99.90
17956;DHT22;27666;51.498;11.966;2023-07-24T18:03:03;22.10;99.90
17956;DHT22;27666;51.498;11.966;2023-07-24T18:05:51;22.10;99.90
17956;DHT22;27666;51.498;11.966;2023-07-24T18:08:38;22.20;99.90
17956;DHT22;27666;51.498;11.966;2023-07-24T18:11:24;22.30;99.90
17956;DHT22;27666;51.498;11.966;2023-07-24T18:14:12;22.30;99.90
17956;DHT22;27666;51.498;11.966;2023-07-24T18:16:59;22.50;99.90
17956;DHT22;27666;51.498;11.966;2023-07-24T18:19:45;22.50;99.90
17956;DHT22;27666;51.498;11.966;2023-07-24T18:22:34;22.50;99.90